Time;durP1;ratioP1;P1;durP2;ratioP2;P2;SDS_P1;SDS_P2;PMS_P1;PMS_P2;Temp;Humidity;BMP_temperature;BMP_pressure;BME280_temperature;BME280_humidity;BME280_pressure;Samples;Min_cycle;Max_cycle;Signal;HPM_P1;HPM_P2
2022/05/27 00:01:09;;;;;;;2.10;1.90;;;12.50;99.90;;;;;;5082958;28;20262;-72
2022/05/27 00:03:35;;;;;;;2.40;2.10;;;12.50;99.90;;;;;;5088295;28;20179;-72
2022/05/27 00:06:01;;;;;;;3.03;2.08;;;12.40;99.90;;;;;;5093170;28;20242;-72
2022/05/27 00:08:26;;;;;;;2.25;2.08;;;12.40;99.90;;;;;;5085987;28;20240;-72
2022/05/27 00:10:55;;;;;;;2.03;1.92;;;12.40;99.90;;;;;;5090166;28;20179;-72
2022/05/27 00:13:21;;;;;;;2.13;2.00;;;12.30;99.90;;;;;;5083015;28;20201;-72
2022/05/27 00:15:46;;;;;;;1.80;1.70;;;12.30;99.90;;;;;;5078439;28;20646;-73
2022/05/27 00:18:12;;;;;;;2.33;1.95;;;12.30;99.90;;;;;;5086533;28;20199;-72
2022/05/27 00:20:38;;;;;;;1.63;1.52;;;12.30;99.90;;;;;;5096666;28;20281;-72
2022/05/27 00:23:04;;;;;;;2.33;2.13;;;12.30;99.90;;;;;;5083971;28;20262;-72
2022/05/27 00:25:30;;;;;;;1.98;1.73;;;12.30;99.90;;;;;;5091055;28;20622;-72
2022/05/27 00:27:57;;;;;;;2.03;1.90;;;12.30;99.90;;;;;;5086900;28;20193;-72
2022/05/27 00:30:23;;;;;;;2.35;1.70;;;12.30;99.90;;;;;;5084724;28;20601;-72
2022/05/27 00:32:49;;;;;;;2.15;1.90;;;12.30;99.90;;;;;;5081484;28;20233;-72
2022/05/27 00:35:14;;;;;;;2.00;1.90;;;12.20;99.90;;;;;;5097912;28;20178;-72
2022/05/27 00:37:40;;;;;;;1.98;1.88;;;12.20;99.90;;;;;;5095258;28;20194;-72
2022/05/27 00:40:07;;;;;;;2.10;2.00;;;12.10;99.90;;;;;;5092681;28;20228;-72
2022/05/27 00:42:32;;;;;;;2.28;2.10;;;12.10;99.90;;;;;;5094062;28;20545;-72
2022/05/27 00:44:58;;;;;;;2.25;2.05;;;12.00;99.90;;;;;;5088111;28;20171;-72
2022/05/27 00:47:27;;;;;;;2.42;2.25;;;12.00;99.90;;;;;;5097607;28;20183;-73
2022/05/27 00:49:59;;;;;;;2.45;2.22;;;12.00;99.90;;;;;;5087052;28;20215;-73
2022/05/27 00:52:30;;;;;;;2.40;2.20;;;12.00;99.90;;;;;;5086755;28;20185;-72
2022/05/27 00:54:56;;;;;;;2.22;2.03;;;12.00;99.90;;;;;;5085084;28;20669;-72
2022/05/27 00:57:27;;;;;;;5.60;1.98;;;12.00;99.90;;;;;;5096234;28;21140;-73
2022/05/27 00:59:57;;;;;;;4.35;1.95;;;12.00;99.90;;;;;;5091959;28;20199;-72
2022/05/27 01:02:23;;;;;;;3.47;2.00;;;11.90;99.90;;;;;;5083068;28;20294;-73
2022/05/27 01:04:50;;;;;;;4.72;2.00;;;11.90;99.90;;;;;;5089153;28;20661;-72
2022/05/27 01:07:16;;;;;;;1.75;1.65;;;11.90;99.90;;;;;;5099561;28;20579;-72
2022/05/27 01:09:44;;;;;;;1.90;1.73;;;11.90;99.90;;;;;;5091966;28;20199;-73
2022/05/27 01:12:17;;;;;;;2.90;2.15;;;11.90;99.90;;;;;;5092095;28;20194;-73
2022/05/27 01:14:54;;;;;;;2.17;1.67;;;11.90;99.90;;;;;;5087724;28;20174;-73
2022/05/27 01:17:52;;;;;;;1.50;1.40;;;11.90;99.90;;;;;;5090249;28;20693;-73
2022/05/27 01:20:51;;;;;;;1.90;1.80;;;11.90;99.90;;;;;;5090132;28;20207;-72
2022/05/27 01:23:46;;;;;;;2.15;1.83;;;11.90;99.90;;;;;;5090951;28;20186;-72
2022/05/27 01:26:37;;;;;;;3.35;2.10;;;11.80;99.90;;;;;;5089842;28;20190;-72
2022/05/27 01:29:36;;;;;;;2.08;1.98;;;11.80;99.90;;;;;;5087944;28;20701;-72
2022/05/27 01:32:29;;;;;;;1.80;1.70;;;11.80;99.90;;;;;;5088931;28;20189;-72
2022/05/27 01:35:03;;;;;;;2.25;1.67;;;11.70;99.90;;;;;;5090588;28;20174;-73
2022/05/27 01:37:34;;;;;;;1.90;1.80;;;11.70;99.90;;;;;;5089442;28;20319;-73
2022/05/27 01:40:24;;;;;;;2.92;1.98;;;11.70;99.90;;;;;;5083998;28;20558;-73
2022/05/27 01:42:58;;;;;;;2.22;2.00;;;11.70;99.90;;;;;;5094847;28;20170;-73
2022/05/27 01:45:45;;;;;;;1.90;1.80;;;11.70;99.90;;;;;;5088479;28;20175;-73
2022/05/27 01:48:19;;;;;;;1.92;1.80;;;11.70;99.90;;;;;;5094110;28;20182;-73
2022/05/27 01:51:05;;;;;;;2.15;1.98;;;11.60;99.90;;;;;;5083116;28;20206;-73
2022/05/27 01:53:54;;;;;;;2.40;2.10;;;11.60;99.90;;;;;;5093597;28;20304;-73
2022/05/27 01:56:26;;;;;;;1.90;1.80;;;11.50;99.90;;;;;;5096436;28;20185;-73
2022/05/27 01:59:20;;;;;;;1.98;1.88;;;11.50;99.90;;;;;;5092270;28;20186;-73
2022/05/27 02:01:52;;;;;;;1.90;1.80;;;11.40;99.90;;;;;;5070734;28;20672;-73
2022/05/27 02:04:25;;;;;;;1.60;1.60;;;11.40;99.90;;;;;;5092157;28;20681;-73
2022/05/27 02:06:58;;;;;;;2.17;2.08;;;11.40;99.90;;;;;;5088187;28;20191;-73
2022/05/27 02:09:44;;;;;;;2.10;2.00;;;11.40;99.90;;;;;;5089628;28;20211;-72
2022/05/27 02:12:21;;;;;;;2.85;2.08;;;11.40;99.90;;;;;;5091351;28;20179;-72
2022/05/27 02:14:53;;;;;;;2.22;2.13;;;11.40;99.90;;;;;;5094661;28;20222;-72
2022/05/27 02:17:29;;;;;;;1.80;1.70;;;11.40;99.90;;;;;;5090062;28;20673;-72
2022/05/27 02:20:00;;;;;;;2.40;2.20;;;11.50;99.90;;;;;;5095542;28;20213;-74
2022/05/27 02:22:30;;;;;;;2.80;2.60;;;11.40;99.90;;;;;;5091352;28;20190;-72
2022/05/27 02:25:11;;;;;;;6.10;2.30;;;11.40;99.90;;;;;;5090246;28;20186;-72
2022/05/27 02:27:59;;;;;;;2.30;2.10;;;11.40;99.90;;;;;;5091557;28;20191;-72
2022/05/27 02:30:29;;;;;;;2.25;2.13;;;11.40;99.90;;;;;;5094153;28;20198;-72
2022/05/27 02:35:55;;;;;;;3.05;2.25;;;11.30;99.90;;;;;;5085915;28;20183;-72
2022/05/27 02:38:21;;;;;;;3.40;2.40;;;11.30;99.90;;;;;;5082192;28;20207;-72
2022/05/27 02:41:29;;;;;;;2.47;2.30;;;11.30;99.90;;;;;;5093124;28;20748;-72
2022/05/27 02:44:06;;;;;;;2.20;2.10;;;11.30;99.90;;;;;;5085895;28;20540;-72
2022/05/27 02:46:49;;;;;;;2.55;1.95;;;11.30;99.90;;;;;;5083674;28;20614;-72
2022/05/27 02:49:31;;;;;;;3.15;2.22;;;11.30;99.90;;;;;;5092406;28;20194;-73
2022/05/27 02:52:22;;;;;;;3.35;2.42;;;11.30;99.90;;;;;;5091383;28;20179;-72
2022/05/27 02:55:10;;;;;;;2.20;2.00;;;11.30;99.90;;;;;;5082224;28;20179;-73
2022/05/27 02:57:43;;;;;;;3.55;2.55;;;11.30;99.90;;;;;;5081853;28;20677;-73
2022/05/27 03:00:18;;;;;;;2.10;1.90;;;11.20;99.90;;;;;;5097225;28;20194;-73
2022/05/27 03:02:43;;;;;;;1.95;1.85;;;11.20;99.90;;;;;;5083725;28;20552;-73
2022/05/27 03:05:11;;;;;;;1.83;1.73;;;11.20;99.90;;;;;;5087825;28;20171;-73
2022/05/27 03:07:45;;;;;;;2.55;1.90;;;11.30;99.90;;;;;;5085131;28;20186;-73
2022/05/27 03:10:48;;;;;;;2.63;2.42;;;11.30;99.90;;;;;;5087927;28;20259;-73
2022/05/27 03:13:19;;;;;;;2.15;1.95;;;11.30;99.90;;;;;;5081671;28;20544;-72
2022/05/27 03:16:02;;;;;;;2.40;2.30;;;11.40;99.90;;;;;;5086747;28;20262;-73
2022/05/27 03:19:05;;;;;;;2.63;2.28;;;11.40;99.90;;;;;;5091283;28;20225;-72
2022/05/27 03:21:37;;;;;;;3.70;2.25;;;11.50;99.90;;;;;;5091915;28;20543;-72
2022/05/27 03:24:30;;;;;;;1.90;1.80;;;11.50;99.90;;;;;;5097903;28;20172;-73
2022/05/27 03:27:07;;;;;;;2.50;2.30;;;11.50;99.90;;;;;;5087868;28;20213;-73
2022/05/27 03:29:43;;;;;;;2.13;2.03;;;11.50;99.90;;;;;;5081412;28;20258;-72
2022/05/27 03:32:27;;;;;;;2.05;1.85;;;11.60;99.90;;;;;;5084731;28;20262;-75
2022/05/27 03:35:18;;;;;;;1.92;1.83;;;11.60;99.90;;;;;;5086515;28;20262;-72
2022/05/27 03:38:08;;;;;;;2.65;2.00;;;11.70;99.90;;;;;;5065205;28;20210;-72
2022/05/27 03:40:47;;;;;;;2.25;2.10;;;11.80;99.90;;;;;;5107301;28;20224;-72
2022/05/27 03:43:13;;;;;;;4.18;2.50;;;11.80;99.90;;;;;;5081918;28;20638;-72
2022/05/27 03:45:53;;;;;;;2.00;1.90;;;11.80;99.90;;;;;;5082981;28;20272;-72
2022/05/27 03:48:20;;;;;;;2.55;1.92;;;11.90;99.90;;;;;;5092413;28;20181;-72
2022/05/27 03:50:51;;;;;;;2.85;2.13;;;11.90;99.90;;;;;;5098070;28;20177;-72
2022/05/27 03:53:18;;;;;;;2.03;1.92;;;11.90;99.90;;;;;;5101311;28;20625;-72
2022/05/27 03:55:46;;;;;;;2.10;2.00;;;11.90;99.90;;;;;;5094866;28;20254;-72
2022/05/27 03:58:16;;;;;;;2.10;1.90;;;12.00;99.90;;;;;;5097354;28;20210;-72
2022/05/27 04:00:43;;;;;;;4.03;2.35;;;12.00;99.90;;;;;;5089357;28;20175;-72
2022/05/27 04:03:10;;;;;;;4.05;1.95;;;12.00;99.90;;;;;;5098200;28;20175;-72
2022/05/27 04:05:38;;;;;;;3.97;2.33;;;12.00;99.90;;;;;;5101456;28;20665;-72
2022/05/27 04:08:04;;;;;;;3.03;2.20;;;12.10;99.90;;;;;;5098452;28;20178;-72
2022/05/27 04:10:29;;;;;;;2.67;2.47;;;12.10;99.90;;;;;;5090309;28;20254;-73
2022/05/27 04:12:55;;;;;;;1.80;1.70;;;12.20;99.90;;;;;;5094680;28;20178;-72
2022/05/27 04:15:21;;;;;;;2.60;2.40;;;12.30;99.90;;;;;;5102750;28;20185;-73
2022/05/27 04:17:47;;;;;;;2.10;2.00;;;12.30;99.90;;;;;;5095048;28;20202;-72
2022/05/27 04:20:16;;;;;;;2.40;1.88;;;12.40;99.90;;;;;;5089291;28;20190;-72
2022/05/27 04:22:42;;;;;;;2.75;1.90;;;12.40;99.90;;;;;;5086071;28;20178;-72
2022/05/27 04:25:08;;;;;;;2.20;2.03;;;12.60;99.90;;;;;;5093441;28;20540;-72
2022/05/27 04:27:35;;;;;;;2.33;2.10;;;12.80;99.90;;;;;;5088632;28;20190;-72
2022/05/27 04:30:04;;;;;;;2.20;2.10;;;12.80;99.90;;;;;;5090591;28;20769;-72
2022/05/27 04:32:29;;;;;;;3.75;2.08;;;12.80;99.90;;;;;;5090610;28;20187;-72
2022/05/27 04:34:55;;;;;;;4.05;2.35;;;12.80;99.90;;;;;;5095865;28;20230;-72
2022/05/27 04:37:23;;;;;;;3.22;2.30;;;13.00;99.90;;;;;;5085206;28;20214;-73
2022/05/27 04:39:49;;;;;;;2.42;2.03;;;13.10;99.90;;;;;;5089201;28;20195;-72
2022/05/27 04:42:15;;;;;;;2.58;2.38;;;13.10;99.90;;;;;;5099237;28;20225;-75
2022/05/27 04:44:40;;;;;;;2.55;2.10;;;13.30;99.90;;;;;;5094553;28;20193;-72
2022/05/27 04:47:07;;;;;;;2.42;2.30;;;13.40;99.90;;;;;;5089194;28;20262;-72
2022/05/27 04:49:53;;;;;;;2.90;2.50;;;13.30;99.90;;;;;;5088848;28;20665;-73
2022/05/27 04:52:20;;;;;;;2.15;1.95;;;13.40;99.90;;;;;;5094049;28;20303;-73
2022/05/27 04:54:46;;;;;;;1.98;1.88;;;13.50;99.90;;;;;;5094096;28;20232;-73
2022/05/27 04:57:16;;;;;;;2.03;1.92;;;13.60;99.90;;;;;;5096058;28;20288;-73
2022/05/27 04:59:41;;;;;;;2.13;2.03;;;13.70;99.90;;;;;;5100568;27;20277;-73
2022/05/27 05:02:07;;;;;;;2.03;1.92;;;13.60;99.90;;;;;;5097397;28;20234;-74
2022/05/27 05:04:33;;;;;;;2.10;2.00;;;13.70;99.90;;;;;;5110101;28;20257;-73
2022/05/27 05:07:06;;;;;;;2.33;2.13;;;13.70;99.90;;;;;;5092278;28;20170;-76
2022/05/27 05:09:32;;;;;;;3.03;2.58;;;13.80;99.90;;;;;;5094628;28;20197;-76
2022/05/27 05:12:24;;;;;;;4.28;2.70;;;13.90;99.90;;;;;;5099344;28;20174;-76
2022/05/27 05:14:51;;;;;;;2.90;2.40;;;13.90;99.90;;;;;;5091518;28;20204;-75
2022/05/27 05:17:17;;;;;;;4.53;2.60;;;14.00;99.90;;;;;;5099625;28;20213;-76
2022/05/27 05:19:43;;;;;;;2.63;2.33;;;14.10;99.90;;;;;;5093182;28;20182;-76
2022/05/27 05:22:09;;;;;;;2.60;2.40;;;14.10;99.90;;;;;;5095370;28;20174;-76
2022/05/27 05:24:34;;;;;;;2.70;2.50;;;14.20;99.90;;;;;;5092468;28;20175;-77
2022/05/27 05:27:00;;;;;;;2.83;2.60;;;14.30;99.90;;;;;;5094085;28;20189;-77
2022/05/27 05:29:26;;;;;;;3.17;2.97;;;14.30;99.90;;;;;;5095385;28;20222;-77
2022/05/27 05:31:52;;;;;;;3.00;2.78;;;14.40;99.90;;;;;;5090478;28;20188;-76
2022/05/27 05:34:18;;;;;;;5.60;2.45;;;14.50;99.90;;;;;;5094089;28;20231;-75
2022/05/27 05:36:44;;;;;;;2.80;2.60;;;14.50;99.90;;;;;;5106007;28;20182;-76
2022/05/27 05:39:10;;;;;;;2.40;2.30;;;14.60;99.90;;;;;;5092262;28;20209;-77
2022/05/27 05:41:38;;;;;;;3.05;2.47;;;14.70;99.90;;;;;;5090803;28;20190;-77
2022/05/27 05:44:06;;;;;;;2.50;2.30;;;14.70;99.90;;;;;;5102885;28;20193;-77
2022/05/27 05:46:36;;;;;;;2.55;1.75;;;14.80;99.90;;;;;;5091728;28;20182;-78
2022/05/27 05:49:05;;;;;;;2.28;2.08;;;14.90;99.90;;;;;;5093697;28;20625;-78
2022/05/27 05:51:31;;;;;;;1.83;1.73;;;15.10;99.90;;;;;;5115534;28;20170;-78
2022/05/27 05:53:57;;;;;;;2.10;1.90;;;15.30;99.90;;;;;;5099243;28;20615;-77
2022/05/27 05:56:22;;;;;;;2.50;1.90;;;15.50;99.90;;;;;;5089175;28;20217;-78
2022/05/27 05:58:51;;;;;;;3.33;2.35;;;15.60;99.90;;;;;;5102775;28;20236;-77
2022/05/27 06:01:17;;;;;;;5.63;2.17;;;15.70;99.90;;;;;;5084110;28;20186;-77
2022/05/27 06:03:43;;;;;;;1.48;1.38;;;15.80;99.90;;;;;;5090989;28;20544;-76
2022/05/27 06:06:09;;;;;;;2.63;2.13;;;15.90;99.90;;;;;;5094480;28;20178;-75
2022/05/27 06:08:36;;;;;;;3.70;1.50;;;15.90;99.90;;;;;;5086829;28;20283;-76
2022/05/27 06:11:10;;;;;;;9.85;7.75;;;16.00;99.90;;;;;;5091449;28;20598;-77
2022/05/27 06:13:36;;;;;;;9.73;6.85;;;16.10;99.90;;;;;;5087225;28;20240;-73
2022/05/27 06:16:03;;;;;;;3.08;2.05;;;16.30;99.90;;;;;;5105378;28;20264;-73
2022/05/27 06:18:29;;;;;;;1.70;1.60;;;16.30;99.90;;;;;;5090717;28;20293;-73
2022/05/27 06:20:55;;;;;;;2.67;2.40;;;16.50;99.90;;;;;;5098718;28;20939;-73
2022/05/27 06:23:22;;;;;;;5.25;4.50;;;16.70;99.90;;;;;;5098151;28;20268;-73
2022/05/27 06:25:57;;;;;;;2.65;1.63;;;16.80;99.90;;;;;;5092331;28;20237;-76
2022/05/27 06:36:36;;;;;;;3.92;3.05;;;17.40;99.90;;;;;;5092057;28;20629;-73
2022/05/27 06:39:04;;;;;;;4.47;2.50;;;17.70;99.90;;;;;;5107748;28;20189;-73
2022/05/27 06:41:31;;;;;;;2.42;2.22;;;18.00;99.90;;;;;;5099370;28;20205;-72
2022/05/27 06:43:57;;;;;;;3.00;2.80;;;18.40;99.90;;;;;;5089409;28;20178;-73
2022/05/27 06:46:23;;;;;;;2.15;1.92;;;18.70;99.90;;;;;;5091411;28;20193;-73
2022/05/27 06:48:49;;;;;;;3.83;2.80;;;19.10;99.90;;;;;;5087367;28;20202;-73
2022/05/27 06:51:14;;;;;;;1.88;1.77;;;19.20;99.90;;;;;;5089589;28;20627;-73
2022/05/27 06:53:40;;;;;;;2.60;2.42;;;19.20;99.90;;;;;;5080353;28;20206;-72
2022/05/27 06:56:08;;;;;;;3.65;3.35;;;19.30;99.90;;;;;;5080982;28;20639;-72
2022/05/27 06:58:34;;;;;;;2.35;2.22;;;19.40;99.90;;;;;;5079240;28;20202;-72
2022/05/27 07:01:00;;;;;;;2.45;2.25;;;19.50;99.90;;;;;;5079758;28;20191;-73
2022/05/27 07:03:26;;;;;;;1.60;1.60;;;19.80;99.90;;;;;;5080941;28;20180;-72
2022/05/27 07:05:52;;;;;;;3.38;3.08;;;20.00;99.90;;;;;;5080608;28;20210;-72
2022/05/27 07:08:18;;;;;;;7.32;5.85;;;20.20;99.90;;;;;;5088170;28;20193;-73
2022/05/27 07:10:43;;;;;;;2.40;1.70;;;20.10;99.90;;;;;;5092460;28;20179;-78
2022/05/27 07:13:15;;;;;;;2.50;2.05;;;20.20;99.90;;;;;;5094192;28;20697;-77
2022/05/27 07:15:41;;;;;;;1.83;1.70;;;20.20;99.90;;;;;;5087696;28;20183;-77
2022/05/27 07:18:08;;;;;;;4.00;3.58;;;20.20;99.90;;;;;;5088605;28;20203;-76
2022/05/27 07:20:36;;;;;;;1.95;1.85;;;20.00;99.90;;;;;;5094468;28;20598;-76
2022/05/27 07:23:03;;;;;;;3.47;2.78;;;19.90;99.90;;;;;;5093935;28;20175;-77
2022/05/27 07:25:35;;;;;;;1.85;1.73;;;19.90;99.90;;;;;;5094613;28;20179;-77
2022/05/27 07:28:05;;;;;;;2.03;1.92;;;19.90;99.90;;;;;;5093800;28;20201;-76
2022/05/27 07:30:48;;;;;;;2.05;1.90;;;19.70;99.90;;;;;;5094878;28;20276;-78
2022/05/27 07:33:13;;;;;;;4.65;2.00;;;19.70;99.90;;;;;;5093562;28;20186;-76
2022/05/27 07:35:39;;;;;;;2.88;2.00;;;19.60;99.90;;;;;;5089798;28;20182;-75
2022/05/27 07:38:05;;;;;;;2.13;1.88;;;19.50;99.90;;;;;;5092307;28;20703;-75
2022/05/27 07:40:30;;;;;;;1.90;1.80;;;19.50;99.90;;;;;;5088784;28;20190;-78
2022/05/27 07:42:56;;;;;;;3.22;2.05;;;19.50;99.90;;;;;;5088940;28;20186;-76
2022/05/27 07:45:26;;;;;;;2.47;1.58;;;19.50;99.90;;;;;;5098614;28;20257;-75
2022/05/27 07:47:53;;;;;;;2.08;1.95;;;19.50;99.90;;;;;;5096370;28;20182;-75
2022/05/27 07:50:20;;;;;;;2.20;2.00;;;19.50;99.90;;;;;;5103630;28;20198;-79
2022/05/27 07:52:46;;;;;;;3.03;2.72;;;19.20;99.90;;;;;;5097244;28;20189;-76
2022/05/27 07:55:12;;;;;;;3.53;2.45;;;19.10;99.90;;;;;;5097592;28;20269;-76
2022/05/27 07:57:46;;;;;;;2.65;2.40;;;19.00;99.90;;;;;;5090394;28;20747;-76
2022/05/27 08:00:24;;;;;;;2.13;2.03;;;18.90;99.90;;;;;;5090614;28;20201;-76
2022/05/27 08:02:50;;;;;;;2.33;2.13;;;19.10;99.90;;;;;;5089417;28;20179;-76
2022/05/27 08:05:21;;;;;;;2.80;2.10;;;19.00;99.90;;;;;;5094976;28;20280;-77
2022/05/27 08:07:48;;;;;;;3.22;2.92;;;19.20;99.90;;;;;;5092144;28;20204;-76
2022/05/27 08:10:15;;;;;;;4.47;3.00;;;19.50;99.90;;;;;;5092883;28;20230;-76
2022/05/27 08:12:42;;;;;;;6.18;5.38;;;19.60;99.90;;;;;;5096350;28;20169;-77
2022/05/27 08:15:12;;;;;;;3.55;2.03;;;19.80;99.90;;;;;;5092445;28;20269;-78
2022/05/27 08:17:38;;;;;;;2.05;1.95;;;20.00;99.90;;;;;;5088723;28;20249;-76
2022/05/27 08:20:07;;;;;;;2.75;2.50;;;20.20;99.90;;;;;;5085679;28;20201;-79
2022/05/27 08:22:32;;;;;;;2.97;1.80;;;20.30;99.90;;;;;;5090510;28;20214;-78
2022/05/27 08:24:58;;;;;;;2.83;1.50;;;20.30;99.90;;;;;;5100621;28;20177;-79
2022/05/27 08:27:23;;;;;;;2.35;2.25;;;20.50;99.90;;;;;;5098752;28;20201;-79
2022/05/27 08:29:49;;;;;;;2.70;2.42;;;20.80;99.90;;;;;;5101471;28;20205;-81
2022/05/27 08:32:15;;;;;;;1.90;1.80;;;20.90;99.90;;;;;;5086549;28;20244;-79
2022/05/27 08:40:36;;;;;;;2.20;2.00;;;21.30;99.90;;;;;;5109240;28;20209;-77
2022/05/27 08:43:01;;;;;;;3.78;3.47;;;21.30;99.90;;;;;;5096096;28;20187;-78
2022/05/27 08:46:06;;;;;;;2.00;1.90;;;20.90;99.90;;;;;;5107321;28;20315;-77
2022/05/27 08:48:38;;;;;;;1.98;1.88;;;20.80;99.90;;;;;;5100798;28;20225;-77
2022/05/27 08:51:17;;;;;;;2.83;2.63;;;20.60;99.90;;;;;;5106517;28;20187;-76
2022/05/27 08:53:57;;;;;;;3.35;1.90;;;20.70;99.90;;;;;;5094524;28;20242;-78
2022/05/27 08:59:37;;;;;;;2.00;1.90;;;20.80;99.90;;;;;;5108226;28;20263;-77
2022/05/27 09:02:25;;;;;;;3.55;3.25;;;20.90;99.90;;;;;;5098592;28;20181;-74
2022/05/27 09:05:15;;;;;;;1.60;1.50;;;20.90;99.90;;;;;;5098636;28;20249;-75
2022/05/27 09:07:47;;;;;;;1.98;1.83;;;21.20;99.90;;;;;;5100472;28;20174;-74
2022/05/27 09:10:28;;;;;;;1.40;1.30;;;21.30;99.90;;;;;;5089088;28;20199;-78
2022/05/27 09:13:21;;;;;;;3.65;1.95;;;21.50;99.90;;;;;;5094390;28;20189;-75
2022/05/27 09:16:12;;;;;;;2.00;1.80;;;21.80;99.90;;;;;;5099633;28;20182;-75
2022/05/27 09:19:01;;;;;;;3.80;2.03;;;22.10;99.90;;;;;;5100127;28;20212;-75
2022/05/27 09:21:36;;;;;;;3.00;1.83;;;22.30;99.90;;;;;;5098992;28;21179;-75
2022/05/27 09:24:32;;;;;;;2.38;1.80;;;22.20;99.90;;;;;;5093384;28;20176;-75
2022/05/27 09:27:20;;;;;;;1.60;1.50;;;22.60;99.90;;;;;;5101681;28;20181;-75
2022/05/27 09:29:58;;;;;;;2.13;1.88;;;22.60;99.90;;;;;;5095852;28;20675;-75
2022/05/27 09:33:02;;;;;;;1.80;1.70;;;22.60;99.90;;;;;;5102794;28;20257;-77
2022/05/27 09:35:33;;;;;;;1.98;1.88;;;23.00;99.90;;;;;;5090109;28;20209;-75
2022/05/27 09:38:02;;;;;;;1.95;1.63;;;23.10;99.90;;;;;;5081076;28;20237;-76
2022/05/27 09:40:34;;;;;;;2.17;1.60;;;23.90;99.90;;;;;;5091716;28;20320;-77
2022/05/27 09:43:11;;;;;;;2.03;1.83;;;24.10;99.40;;;;;;5090282;28;20183;-75
2022/05/27 09:45:37;;;;;;;3.30;3.10;;;23.90;99.90;;;;;;5085952;28;20174;-75
2022/05/27 09:48:06;;;;;;;3.72;1.92;;;24.10;99.90;;;;;;5089769;28;20270;-75
2022/05/27 09:50:46;;;;;;;2.58;1.95;;;26.40;97.60;;;;;;5089242;28;20198;-75
2022/05/27 09:53:19;;;;;;;1.75;1.65;;;27.90;91.00;;;;;;5087977;28;20190;-74
2022/05/27 09:55:59;;;;;;;2.10;1.90;;;28.10;84.90;;;;;;5083292;28;20677;-74
2022/05/27 09:58:29;;;;;;;2.22;1.70;;;27.90;83.90;;;;;;5081314;28;20225;-74
2022/05/27 10:00:55;;;;;;;1.70;1.30;;;27.70;81.40;;;;;;5088947;28;20265;-77
2022/05/27 10:03:29;;;;;;;1.20;1.20;;;27.70;81.60;;;;;;5087342;28;20186;-78
2022/05/27 10:06:15;;;;;;;4.78;1.95;;;28.50;77.10;;;;;;5091486;28;20669;-76
2022/05/27 10:09:01;;;;;;;2.55;1.60;;;29.30;74.20;;;;;;5087894;28;20294;-76
2022/05/27 10:11:30;;;;;;;3.22;1.73;;;30.60;70.00;;;;;;5088542;28;20178;-76
2022/05/27 10:14:17;;;;;;;2.53;1.63;;;31.60;68.40;;;;;;5087548;28;20186;-75
2022/05/27 10:17:00;;;;;;;2.10;1.88;;;32.20;60.60;;;;;;5079233;28;20200;-75
2022/05/27 10:19:27;;;;;;;1.45;1.40;;;32.00;59.50;;;;;;5080149;28;20231;-77
2022/05/27 10:21:59;;;;;;;1.40;1.30;;;31.90;58.00;;;;;;5081089;28;20171;-76
2022/05/27 10:24:27;;;;;;;2.03;1.17;;;32.20;58.00;;;;;;5084332;28;20186;-75
2022/05/27 10:27:04;;;;;;;1.60;1.50;;;32.00;56.60;;;;;;5089565;28;20179;-74
2022/05/27 10:29:32;;;;;;;1.67;1.58;;;30.80;58.90;;;;;;5093066;28;20261;-76
2022/05/27 10:31:59;;;;;;;1.50;1.38;;;29.90;59.70;;;;;;5092114;28;20171;-76
2022/05/27 10:34:45;;;;;;;1.50;1.42;;;28.40;63.60;;;;;;5091306;28;20186;-76
2022/05/27 10:37:22;;;;;;;1.75;1.15;;;27.20;65.50;;;;;;5096360;28;20198;-75
2022/05/27 10:40:05;;;;;;;2.00;1.45;;;26.60;68.60;;;;;;5088364;28;20190;-76
2022/05/27 10:43:32;;;;;;;2.75;1.45;;;25.80;70.30;;;;;;5101328;28;20185;-77
2022/05/27 10:46:03;;;;;;;4.30;1.30;;;25.20;73.30;;;;;;5051049;28;20176;-77
2022/05/27 10:48:51;;;;;;;1.58;0.75;;;26.40;75.10;;;;;;5060079;28;20282;-76
2022/05/27 10:51:37;;;;;;;1.13;1.05;;;28.10;65.70;;;;;;5074211;28;20187;-76
2022/05/27 10:54:08;;;;;;;1.42;1.38;;;29.70;62.40;;;;;;5101320;28;20178;-76
2022/05/27 11:03:25;;;;;;;0.85;0.85;;;31.60;56.80;;;;;;5095730;28;20212;-75
2022/05/27 11:06:19;;;;;;;5.03;1.50;;;30.00;59.60;;;;;;5087516;28;20531;-75
2022/05/27 11:09:24;;;;;;;1.60;1.20;;;28.60;63.10;;;;;;5090149;28;20197;-75
2022/05/27 11:12:05;;;;;;;1.77;1.60;;;28.10;64.90;;;;;;5095846;28;20255;-75
2022/05/27 11:15:12;;;;;;;2.47;1.50;;;27.90;64.80;;;;;;5099598;28;20752;-75
2022/05/27 11:17:49;;;;;;;2.65;1.63;;;27.00;67.70;;;;;;5089706;28;20737;-76
2022/05/27 11:20:56;;;;;;;3.33;1.40;;;26.20;70.70;;;;;;5092309;28;20207;-75
2022/05/27 11:23:46;;;;;;;1.42;1.33;;;25.90;71.90;;;;;;5089923;28;20219;-75
2022/05/27 11:26:18;;;;;;;1.52;1.38;;;27.30;69.80;;;;;;5088741;28;20216;-76
2022/05/27 11:28:56;;;;;;;1.17;1.08;;;28.90;64.40;;;;;;5090786;28;20271;-76
2022/05/27 11:31:36;;;;;;;1.23;1.17;;;29.70;61.50;;;;;;5092498;28;20256;-75
2022/05/27 11:34:01;;;;;;;3.10;1.70;;;29.90;59.20;;;;;;5102778;28;20544;-77
2022/05/27 11:37:07;;;;;;;0.95;0.95;;;29.30;59.50;;;;;;5087916;28;20175;-75
2022/05/27 11:40:15;;;;;;;1.70;1.60;;;28.50;62.20;;;;;;5088512;28;20232;-76
2022/05/27 11:43:11;;;;;;;1.25;1.15;;;28.40;62.90;;;;;;5062508;28;20276;-76
2022/05/27 11:45:54;;;;;;;2.70;1.20;;;28.50;61.80;;;;;;5092483;28;20182;-76
2022/05/27 11:48:30;;;;;;;1.45;1.35;;;28.60;62.50;;;;;;5090819;28;20181;-76
2022/05/27 11:51:09;;;;;;;1.50;0.98;;;29.10;60.70;;;;;;5090493;28;20210;-75
2022/05/27 11:53:49;;;;;;;1.33;1.23;;;30.00;58.90;;;;;;5095586;28;20183;-77
2022/05/27 11:56:39;;;;;;;1.88;1.77;;;29.70;61.40;;;;;;5084407;28;20174;-77
2022/05/27 11:59:18;;;;;;;1.05;0.73;;;29.90;59.30;;;;;;5084584;28;20207;-72
2022/05/27 12:02:09;;;;;;;2.83;1.25;;;30.40;58.10;;;;;;5081790;28;20555;-73
2022/05/27 12:04:53;;;;;;;1.20;1.10;;;30.60;57.60;;;;;;5083082;28;20196;-78
2022/05/27 12:07:35;;;;;;;1.15;1.05;;;30.90;56.60;;;;;;5092214;28;20178;-78
2022/05/27 12:10:22;;;;;;;3.15;1.63;;;30.20;57.50;;;;;;5096698;28;20201;-76
2022/05/27 12:12:56;;;;;;;1.08;1.02;;;30.40;59.60;;;;;;5091580;28;20169;-76
2022/05/27 12:15:37;;;;;;;1.55;1.17;;;30.80;57.30;;;;;;5095759;28;20614;-77
2022/05/27 12:18:09;;;;;;;1.17;1.10;;;30.90;58.20;;;;;;5082433;28;20288;-74
2022/05/27 12:20:37;;;;;;;1.23;1.23;;;32.00;55.20;;;;;;5085172;28;20289;-75
2022/05/27 12:23:06;;;;;;;1.38;1.27;;;31.40;56.80;;;;;;5087512;28;20174;-74
2022/05/27 12:25:41;;;;;;;1.35;1.10;;;31.10;56.90;;;;;;5086479;28;20238;-75
2022/05/27 12:28:08;;;;;;;2.25;1.25;;;30.90;56.80;;;;;;5086301;28;20246;-75
2022/05/27 12:30:42;;;;;;;1.95;1.17;;;31.20;56.10;;;;;;5082168;28;20692;-75
2022/05/27 12:33:14;;;;;;;1.70;1.30;;;32.00;55.20;;;;;;5085448;28;20178;-72
2022/05/27 12:35:43;;;;;;;2.85;1.25;;;33.10;53.90;;;;;;5095454;28;20186;-73
2022/05/27 12:38:25;;;;;;;4.65;1.10;;;35.20;51.50;;;;;;5093603;28;20675;-73
2022/05/27 12:40:55;;;;;;;3.58;1.35;;;35.80;50.20;;;;;;5097751;28;20216;-72
2022/05/27 12:43:26;;;;;;;1.20;1.10;;;34.90;49.40;;;;;;5088655;28;20196;-72
2022/05/27 12:46:02;;;;;;;2.17;1.20;;;34.70;50.60;;;;;;5078601;28;20179;-72
2022/05/27 12:48:31;;;;;;;2.90;1.38;;;34.80;49.40;;;;;;5087055;28;21629;-72
2022/05/27 12:51:00;;;;;;;0.90;0.90;;;35.50;49.30;;;;;;5088799;28;20636;-72
2022/05/27 12:53:56;;;;;;;1.45;0.98;;;34.90;49.40;;;;;;5088346;28;20189;-72
2022/05/27 13:02:15;;;;;;;0.93;0.88;;;32.50;51.70;;;;;;5100337;28;20219;-74
2022/05/27 13:04:47;;;;;;;0.85;0.77;;;33.00;50.50;;;;;;5088786;28;20177;-74
2022/05/27 13:07:14;;;;;;;1.42;1.02;;;34.10;49.70;;;;;;5103214;28;20197;-74
2022/05/27 13:09:42;;;;;;;1.60;1.08;;;35.60;47.70;;;;;;5091501;28;20203;-74
2022/05/27 13:12:12;;;;;;;1.83;0.90;;;35.60;46.60;;;;;;5094971;28;20655;-74
2022/05/27 13:14:46;;;;;;;1.58;0.93;;;34.90;47.50;;;;;;5092133;28;20174;-74
2022/05/27 13:17:32;;;;;;;1.13;1.02;;;34.60;48.30;;;;;;5090229;28;20198;-72
2022/05/27 13:20:19;;;;;;;1.75;1.00;;;34.80;50.00;;;;;;5094227;28;20258;-72
2022/05/27 13:23:16;;;;;;;0.90;0.77;;;36.50;46.20;;;;;;5049220;28;20557;-74
2022/05/27 13:26:01;;;;;;;5.03;1.10;;;34.70;47.00;;;;;;5090574;28;20274;-74
2022/05/27 13:28:39;;;;;;;0.75;0.75;;;32.70;49.60;;;;;;5104685;28;20206;-74
2022/05/27 13:31:14;;;;;;;1.02;1.02;;;30.60;53.00;;;;;;5102181;28;20281;-76
2022/05/27 13:34:02;;;;;;;2.33;1.33;;;29.10;55.30;;;;;;5100033;28;20524;-76
2022/05/27 13:36:34;;;;;;;1.27;1.00;;;27.90;57.70;;;;;;5090374;28;20205;-75
2022/05/27 13:39:05;;;;;;;1.20;1.20;;;26.90;59.80;;;;;;5105502;28;20201;-75
2022/05/27 13:41:40;;;;;;;1.67;1.05;;;25.40;63.20;;;;;;5101545;28;20535;-76
2022/05/27 13:44:06;;;;;;;1.67;1.30;;;24.30;66.70;;;;;;5092186;28;20178;-76
2022/05/27 13:46:38;;;;;;;1.40;1.30;;;23.40;70.10;;;;;;5103521;28;20538;-76
2022/05/27 13:49:38;;;;;;;1.10;1.05;;;22.70;73.30;;;;;;5105410;28;20193;-76
2022/05/27 13:52:22;;;;;;;1.50;1.50;;;22.30;75.40;;;;;;5089627;28;20671;-76
2022/05/27 13:55:05;;;;;;;2.78;1.15;;;21.80;78.20;;;;;;5097797;28;20294;-76
2022/05/27 13:57:34;;;;;;;1.33;1.23;;;21.30;80.00;;;;;;5096339;28;20198;-75